Vergas, Minnesota
Current Conditions -  °F | °C
As of 3:55 PM on Thursday 27 Nov 2014 (Local Time) from KDTL Reporting Station
Clear Clear  
Wind Chill: -6°   Ceiling: Unl
Heat Index:   Visibility: 10mi
Dew Point: -2°   Wind: 12mph
Humidity: 62%   Direction: 160°SSE
Pressure: 30.28"   Gusts: NA
Location:  46.66°N, 95.81°W
Report Text: KDTL 272155Z AUTO 16010KT 10SM CLR M13/M19 A3028 RMK AO2
Loading
Personal Weather Stations






























Interactive Weather Map New forecast layout! Learn more

10-Day Weather Forecast

Advertisements
Track Severe Weather on mobile